Time;durP1;ratioP1;P1;durP2;ratioP2;P2;SDS_P1;SDS_P2;PMS_P1;PMS_P2;Temp;Humidity;BMP_temperature;BMP_pressure;BME280_temperature;BME280_humidity;BME280_pressure;Samples;Min_cycle;Max_cycle;Signal;HPM_P1;HPM_P2
2022/12/01 00:01:09;;;;;;;47.20;23.60;;;1.40;99.90;;;;;;5039355;28;20494;-67
2022/12/01 00:03:35;;;;;;;56.80;22.80;;;1.40;99.90;;;;;;5037627;28;20422;-67
2022/12/01 00:06:14;;;;;;;42.93;22.50;;;1.40;99.90;;;;;;5039058;28;20430;-68
2022/12/01 00:10:24;;;;;;;42.77;17.40;;;1.30;99.90;;;;;;5045737;28;20453;-67
2022/12/01 00:11:26;;;;;;;35.40;21.40;;;1.20;99.90;;;;;;5035549;28;20497;-67
2022/12/01 00:13:51;;;;;;;37.83;20.80;;;1.20;99.90;;;;;;5047002;28;20505;-67
2022/12/01 00:16:17;;;;;;;53.13;21.83;;;1.20;99.90;;;;;;5038838;28;20677;-67
2022/12/01 00:18:43;;;;;;;47.10;20.37;;;1.10;99.90;;;;;;5039782;28;20176;-67
2022/12/01 00:21:17;;;;;;;47.13;22.37;;;1.10;99.90;;;;;;5040876;28;20201;-68
2022/12/01 00:23:43;;;;;;;50.13;21.93;;;1.10;99.90;;;;;;5039891;28;20406;-66
2022/12/01 00:26:09;;;;;;;42.03;21.70;;;1.10;99.90;;;;;;5044981;28;20437;-67
2022/12/01 00:28:34;;;;;;;47.53;21.73;;;1.10;99.90;;;;;;5039059;28;20413;-66
2022/12/01 00:31:00;;;;;;;59.37;27.30;;;1.10;99.90;;;;;;5031166;28;20266;-67
2022/12/01 00:33:25;;;;;;;44.20;22.23;;;1.10;99.90;;;;;;5030885;28;20168;-66
2022/12/01 00:35:59;;;;;;;48.90;25.10;;;1.20;99.90;;;;;;5041053;28;20214;-67
2022/12/01 00:38:25;;;;;;;53.93;21.17;;;1.20;99.90;;;;;;5038410;28;20210;-67
2022/12/01 00:40:51;;;;;;;48.90;21.57;;;1.20;99.90;;;;;;5041208;28;20441;-66
2022/12/01 00:43:16;;;;;;;42.77;19.83;;;1.20;99.90;;;;;;5043864;28;20230;-67
2022/12/01 00:45:42;;;;;;;50.27;23.77;;;1.20;99.90;;;;;;5043118;28;20274;-67
2022/12/01 00:48:08;;;;;;;44.23;24.70;;;1.20;99.90;;;;;;5045882;28;20178;-67
2022/12/01 00:50:34;;;;;;;50.23;24.33;;;1.10;99.90;;;;;;5044189;28;20536;-68
2022/12/01 00:52:59;;;;;;;42.70;22.23;;;1.20;99.90;;;;;;5045524;28;20448;-66
2022/12/01 00:55:25;;;;;;;44.40;23.13;;;1.10;99.90;;;;;;5043761;28;20191;-66
2022/12/01 00:57:50;;;;;;;61.87;21.00;;;1.10;99.90;;;;;;5044185;28;20249;-66
2022/12/01 01:00:16;;;;;;;65.90;23.77;;;1.20;99.90;;;;;;5045510;28;20185;-67
2022/12/01 01:02:42;;;;;;;60.53;26.40;;;1.20;99.90;;;;;;5043083;28;20261;-67
2022/12/01 01:05:08;;;;;;;49.97;21.57;;;1.10;99.90;;;;;;5025993;28;20421;-67
2022/12/01 01:07:34;;;;;;;51.37;25.23;;;1.20;99.90;;;;;;5035671;28;20901;-67
2022/12/01 01:09:59;;;;;;;46.73;22.30;;;1.20;99.90;;;;;;5037224;28;20207;-66
2022/12/01 01:12:26;;;;;;;52.57;25.50;;;1.30;99.90;;;;;;5043307;28;20167;-67
2022/12/01 01:14:52;;;;;;;47.73;23.90;;;1.30;99.90;;;;;;5042960;28;20191;-67
2022/12/01 01:17:18;;;;;;;49.33;23.83;;;1.30;99.90;;;;;;5045381;28;20414;-67
2022/12/01 01:19:44;;;;;;;50.07;21.30;;;1.20;99.90;;;;;;5043681;28;20168;-69
2022/12/01 01:22:10;;;;;;;47.57;23.03;;;1.20;99.90;;;;;;5039311;28;20496;-68
2022/12/01 01:24:36;;;;;;;60.80;21.50;;;1.20;99.90;;;;;;5044787;28;20410;-66
2022/12/01 01:27:01;;;;;;;48.47;18.77;;;1.20;99.90;;;;;;5045420;28;20190;-66
2022/12/01 01:29:27;;;;;;;53.33;22.73;;;1.20;99.90;;;;;;5044592;28;20205;-67
2022/12/01 01:31:52;;;;;;;52.50;24.17;;;1.20;99.90;;;;;;5038178;28;20191;-66
2022/12/01 01:34:18;;;;;;;41.30;21.60;;;1.20;99.90;;;;;;5039239;28;20179;-66
2022/12/01 01:36:43;;;;;;;48.13;22.07;;;1.20;99.90;;;;;;5040074;28;20296;-67
2022/12/01 01:39:09;;;;;;;54.20;24.37;;;1.20;99.90;;;;;;5039284;28;20594;-66
2022/12/01 01:41:35;;;;;;;50.73;25.07;;;1.20;99.90;;;;;;5042609;28;20174;-66
2022/12/01 01:44:01;;;;;;;52.63;20.90;;;1.30;99.90;;;;;;5044835;28;20219;-67
2022/12/01 01:46:33;;;;;;;51.77;21.90;;;1.20;99.90;;;;;;5044331;28;20233;-67
2022/12/01 01:49:10;;;;;;;41.73;18.90;;;1.20;99.90;;;;;;5044365;28;20453;-67
2022/12/01 01:51:50;;;;;;;52.27;20.27;;;1.20;99.90;;;;;;5044547;28;20413;-67
2022/12/01 01:54:21;;;;;;;65.37;23.40;;;1.30;99.90;;;;;;5044660;28;20813;-67
2022/12/01 01:56:49;;;;;;;50.37;23.37;;;1.20;99.90;;;;;;5042570;28;20456;-68
2022/12/01 01:59:21;;;;;;;54.60;21.90;;;1.20;99.90;;;;;;5026527;28;20939;-66
2022/12/01 02:01:54;;;;;;;52.90;22.50;;;1.10;99.90;;;;;;5042772;28;20828;-67
2022/12/01 02:04:23;;;;;;;50.97;22.83;;;1.20;99.90;;;;;;5045859;28;20421;-66
2022/12/01 02:06:48;;;;;;;52.80;23.83;;;1.10;99.90;;;;;;5042435;28;20429;-67
2022/12/01 02:09:14;;;;;;;45.00;21.57;;;1.20;99.90;;;;;;5045593;28;20453;-66
2022/12/01 02:12:00;;;;;;;53.67;23.17;;;1.20;99.90;;;;;;5043532;28;20175;-68
2022/12/01 02:14:41;;;;;;;56.43;24.00;;;1.20;99.90;;;;;;5036118;28;20467;-65
2022/12/01 02:17:27;;;;;;;67.27;24.97;;;1.20;99.90;;;;;;5034594;28;20437;-66
2022/12/01 02:20:11;;;;;;;55.23;20.97;;;1.20;99.90;;;;;;5041833;28;20410;-69
2022/12/01 02:22:55;;;;;;;66.97;23.70;;;1.10;99.90;;;;;;5043808;28;20418;-66
2022/12/01 02:25:41;;;;;;;49.47;22.00;;;1.20;99.90;;;;;;5043892;28;20471;-66
2022/12/01 02:28:12;;;;;;;45.23;21.27;;;1.20;99.90;;;;;;5004240;28;20500;-66
2022/12/01 02:30:48;;;;;;;50.43;21.33;;;1.20;99.90;;;;;;5037038;28;20981;-67
2022/12/01 02:33:39;;;;;;;59.07;23.80;;;1.20;99.90;;;;;;5033659;28;20464;-67
2022/12/01 02:36:04;;;;;;;53.77;25.00;;;1.20;99.90;;;;;;5035831;28;20616;-67
2022/12/01 02:38:38;;;;;;;44.03;19.53;;;1.20;99.90;;;;;;5047559;28;21287;-66
2022/12/01 02:41:15;;;;;;;43.37;22.43;;;1.20;99.90;;;;;;5034487;28;20182;-66
2022/12/01 02:43:57;;;;;;;52.70;21.53;;;1.30;99.90;;;;;;5041104;28;20414;-66
2022/12/01 02:46:29;;;;;;;49.80;22.37;;;1.30;99.90;;;;;;5042803;28;20442;-67
2022/12/01 02:48:58;;;;;;;61.70;23.00;;;1.20;99.90;;;;;;5042652;28;21060;-67
2022/12/01 02:51:32;;;;;;;54.77;22.67;;;1.10;99.90;;;;;;5029474;28;20429;-67
2022/12/01 02:54:01;;;;;;;54.70;24.00;;;1.20;99.90;;;;;;5043044;28;20406;-68
2022/12/01 02:56:27;;;;;;;56.80;23.33;;;1.20;99.90;;;;;;5044238;28;20855;-66
2022/12/01 02:58:53;;;;;;;73.67;24.00;;;1.20;99.90;;;;;;5042512;28;20445;-68
2022/12/01 03:01:41;;;;;;;61.63;26.73;;;1.20;99.90;;;;;;5043460;28;20457;-66
2022/12/01 03:04:19;;;;;;;58.50;23.83;;;1.10;99.90;;;;;;5043367;28;20600;-67
2022/12/01 03:07:10;;;;;;;53.53;25.10;;;1.10;99.90;;;;;;5026602;28;20560;-67
2022/12/01 03:10:13;;;;;;;68.13;26.97;;;1.10;99.90;;;;;;5012387;28;20998;-67
2022/12/01 03:12:55;;;;;;;70.63;26.83;;;1.10;99.90;;;;;;5016640;28;20430;-67
2022/12/01 03:15:42;;;;;;;59.67;23.37;;;1.10;99.90;;;;;;5024329;28;20537;-67
2022/12/01 03:18:10;;;;;;;55.80;25.37;;;1.10;99.90;;;;;;5023595;28;20496;-66
2022/12/01 03:20:41;;;;;;;81.27;27.87;;;1.10;99.90;;;;;;5020411;28;20481;-68
2022/12/01 03:23:14;;;;;;;60.20;23.10;;;1.20;99.90;;;;;;5019583;28;20438;-68
2022/12/01 03:25:43;;;;;;;64.53;23.13;;;1.20;99.90;;;;;;5021681;28;20916;-66
2022/12/01 03:28:12;;;;;;;61.83;26.40;;;1.10;99.90;;;;;;5017096;28;20523;-67
2022/12/01 03:30:39;;;;;;;59.57;25.77;;;1.10;99.90;;;;;;5015717;28;20454;-65
2022/12/01 03:33:12;;;;;;;63.43;24.77;;;1.10;99.90;;;;;;5018930;28;20443;-66
2022/12/01 03:35:44;;;;;;;65.97;28.43;;;1.10;99.90;;;;;;5014252;28;20469;-66
2022/12/01 03:38:18;;;;;;;64.57;24.60;;;1.00;99.90;;;;;;5015394;28;20956;-66
2022/12/01 03:40:46;;;;;;;60.07;25.83;;;1.00;99.90;;;;;;5016815;28;20428;-66
2022/12/01 03:43:17;;;;;;;69.10;24.80;;;1.00;99.90;;;;;;5016874;28;20435;-66
2022/12/01 03:45:55;;;;;;;49.40;24.27;;;1.00;99.90;;;;;;5015342;28;20541;-65
2022/12/01 03:48:23;;;;;;;62.03;27.00;;;1.00;99.90;;;;;;5014754;28;20807;-66
2022/12/01 03:51:06;;;;;;;65.90;27.40;;;1.00;99.90;;;;;;5021847;28;20472;-67
2022/12/01 03:53:43;;;;;;;57.00;24.47;;;1.00;99.90;;;;;;5017065;28;20433;-66
2022/12/01 03:56:09;;;;;;;64.47;26.40;;;0.90;99.90;;;;;;5013690;28;20458;-66
2022/12/01 03:58:44;;;;;;;53.73;26.30;;;0.90;99.90;;;;;;5017311;28;20521;-66
2022/12/01 04:01:11;;;;;;;61.00;25.27;;;0.90;99.90;;;;;;5019341;28;20516;-67
2022/12/01 04:03:37;;;;;;;65.17;24.33;;;1.00;99.90;;;;;;5017100;28;20426;-66
2022/12/01 04:06:03;;;;;;;60.83;23.37;;;0.90;99.90;;;;;;5020210;28;20458;-66
2022/12/01 04:08:29;;;;;;;47.57;22.17;;;0.90;99.90;;;;;;5014980;28;20175;-66
2022/12/01 04:10:56;;;;;;;56.60;22.53;;;0.90;99.90;;;;;;5022476;28;20463;-66
2022/12/01 04:13:22;;;;;;;52.53;22.63;;;0.90;99.90;;;;;;5016640;28;20963;-67
2022/12/01 04:15:52;;;;;;;58.43;25.23;;;0.90;99.90;;;;;;5017453;28;20470;-67
2022/12/01 04:18:18;;;;;;;58.30;26.97;;;0.90;99.90;;;;;;5020737;28;20518;-67
2022/12/01 04:20:45;;;;;;;53.23;24.33;;;0.90;99.90;;;;;;5021241;28;20923;-67
2022/12/01 04:23:58;;;;;;;58.77;24.47;;;0.90;99.90;;;;;;5021563;28;20489;-66
2022/12/01 04:26:04;;;;;;;70.37;22.90;;;1.00;99.90;;;;;;5021675;28;20466;-66
2022/12/01 04:28:30;;;;;;;53.70;24.60;;;0.90;99.90;;;;;;5021792;28;20442;-68
2022/12/01 04:30:55;;;;;;;75.40;22.87;;;0.90;99.90;;;;;;5027272;28;20445;-67
2022/12/01 04:33:21;;;;;;;64.23;22.70;;;1.00;99.90;;;;;;5021562;28;20516;-68
2022/12/01 04:35:56;;;;;;;62.40;22.90;;;1.00;99.90;;;;;;5018772;28;20227;-67
2022/12/01 04:38:22;;;;;;;54.27;26.33;;;0.90;99.90;;;;;;5017113;28;20168;-67
2022/12/01 04:40:47;;;;;;;66.17;29.03;;;0.90;99.90;;;;;;5019380;28;20432;-66
2022/12/01 04:43:13;;;;;;;61.83;21.87;;;0.90;99.90;;;;;;5024990;28;20184;-69
2022/12/01 04:45:38;;;;;;;59.03;22.60;;;0.80;99.90;;;;;;5016894;28;20195;-67
2022/12/01 04:48:04;;;;;;;58.70;25.67;;;0.80;99.90;;;;;;5026578;28;20716;-66
2022/12/01 04:50:30;;;;;;;53.47;24.17;;;0.70;99.90;;;;;;5019611;28;20211;-67
2022/12/01 04:52:55;;;;;;;50.57;25.97;;;0.70;99.90;;;;;;5020421;28;20553;-67
2022/12/01 04:55:21;;;;;;;56.77;24.53;;;0.70;99.90;;;;;;5024914;28;20204;-68
2022/12/01 04:57:47;;;;;;;62.03;25.47;;;0.70;99.90;;;;;;5020942;28;20283;-67
2022/12/01 05:00:13;;;;;;;53.57;25.80;;;0.70;99.90;;;;;;5024402;28;20438;-66
2022/12/01 05:02:42;;;;;;;65.17;25.70;;;0.70;99.90;;;;;;5023786;28;20192;-66
2022/12/01 05:05:11;;;;;;;45.83;24.20;;;0.70;99.90;;;;;;5019697;28;20438;-66
2022/12/01 05:07:36;;;;;;;55.93;23.50;;;0.70;99.90;;;;;;5013898;28;20484;-67
2022/12/01 05:10:03;;;;;;;52.30;24.40;;;0.70;99.90;;;;;;5023459;28;20563;-67
2022/12/01 05:12:29;;;;;;;59.97;24.10;;;0.60;99.90;;;;;;5017099;28;20180;-67
2022/12/01 05:14:54;;;;;;;48.13;23.10;;;0.60;99.90;;;;;;5025610;28;20443;-66
2022/12/01 05:17:20;;;;;;;52.47;22.90;;;0.60;99.90;;;;;;5021800;28;20654;-66
2022/12/01 05:22:29;;;;;;;55.53;25.13;;;0.60;99.90;;;;;;5023637;28;20194;-67
2022/12/01 05:24:55;;;;;;;63.03;26.07;;;0.60;99.90;;;;;;5016640;28;20445;-66
2022/12/01 05:27:20;;;;;;;49.53;22.20;;;0.70;99.90;;;;;;5025090;28;20195;-66
2022/12/01 05:29:46;;;;;;;41.27;21.00;;;0.70;99.90;;;;;;5017535;28;20214;-66
2022/12/01 05:32:12;;;;;;;52.67;24.43;;;0.70;99.90;;;;;;5020804;28;20758;-68
2022/12/01 05:34:37;;;;;;;57.33;27.10;;;0.60;99.90;;;;;;5024238;28;20581;-67
2022/12/01 05:37:03;;;;;;;60.87;24.63;;;0.60;99.90;;;;;;5017837;28;20221;-66
2022/12/01 05:39:28;;;;;;;71.83;27.50;;;0.70;99.90;;;;;;5021036;28;20201;-66
2022/12/01 05:41:54;;;;;;;47.17;22.97;;;0.70;99.90;;;;;;5025069;28;20602;-66
2022/12/01 05:44:19;;;;;;;46.00;24.73;;;0.70;99.90;;;;;;5006489;28;20187;-66
2022/12/01 05:46:45;;;;;;;63.50;28.83;;;0.70;99.90;;;;;;5024093;28;20199;-67
2022/12/01 05:49:11;;;;;;;49.50;25.10;;;0.70;99.90;;;;;;5024212;28;20207;-66
2022/12/01 05:51:36;;;;;;;53.57;24.00;;;0.70;99.90;;;;;;5028084;28;20183;-66
2022/12/01 05:54:02;;;;;;;52.63;24.10;;;0.70;99.90;;;;;;5020729;28;20184;-67
2022/12/01 05:56:27;;;;;;;55.87;24.40;;;0.60;99.90;;;;;;5018914;28;20230;-66
2022/12/01 05:58:53;;;;;;;57.47;26.33;;;0.60;99.90;;;;;;5024503;28;20180;-67
2022/12/01 06:01:18;;;;;;;45.33;22.03;;;0.60;99.90;;;;;;5021535;28;20188;-66
2022/12/01 06:03:44;;;;;;;47.80;24.93;;;0.60;99.90;;;;;;5022857;28;20188;-66
2022/12/01 06:06:09;;;;;;;53.17;22.37;;;0.60;99.90;;;;;;5021893;28;20213;-67
2022/12/01 06:08:35;;;;;;;49.93;25.07;;;0.60;99.90;;;;;;5020859;28;20271;-65
2022/12/01 06:11:01;;;;;;;54.83;23.43;;;0.60;99.90;;;;;;5025461;28;20182;-66
2022/12/01 06:13:26;;;;;;;51.20;23.40;;;0.60;99.90;;;;;;5016516;28;20179;-66
2022/12/01 06:15:59;;;;;;;57.30;21.30;;;0.70;99.90;;;;;;5025359;28;20202;-66
2022/12/01 06:18:26;;;;;;;36.83;20.70;;;0.70;99.90;;;;;;5025418;28;20262;-67
2022/12/01 06:20:52;;;;;;;50.70;24.57;;;0.70;99.90;;;;;;5020682;28;20488;-66
2022/12/01 06:23:18;;;;;;;60.27;26.43;;;0.70;99.90;;;;;;5027785;28;20434;-66
2022/12/01 06:25:43;;;;;;;54.97;27.23;;;0.70;99.90;;;;;;5023203;28;20218;-67
2022/12/01 06:28:09;;;;;;;51.57;23.50;;;0.80;99.90;;;;;;5015753;28;20192;-68
2022/12/01 06:30:34;;;;;;;45.53;22.03;;;0.80;99.90;;;;;;5025045;28;20541;-67
2022/12/01 06:33:00;;;;;;;57.40;23.13;;;0.80;99.90;;;;;;5021875;28;20198;-66
2022/12/01 06:35:25;;;;;;;52.33;23.70;;;0.80;99.90;;;;;;5022372;28;20211;-67
2022/12/01 06:37:55;;;;;;;51.50;25.67;;;0.80;99.90;;;;;;5024597;28;20222;-67
2022/12/01 06:40:21;;;;;;;53.07;23.70;;;0.80;99.90;;;;;;5019618;28;20163;-68
2022/12/01 06:42:47;;;;;;;54.03;24.13;;;0.70;99.90;;;;;;5020074;28;20499;-67
2022/12/01 06:45:12;;;;;;;57.63;25.70;;;0.70;99.90;;;;;;5019111;28;20249;-66
2022/12/01 06:47:38;;;;;;;62.20;24.57;;;0.70;99.90;;;;;;5021310;28;20204;-67
2022/12/01 06:50:07;;;;;;;60.33;26.80;;;0.70;99.90;;;;;;5023738;28;20211;-66
2022/12/01 06:52:33;;;;;;;51.53;25.67;;;0.70;99.90;;;;;;5016435;28;20523;-67
2022/12/01 06:54:59;;;;;;;52.50;28.53;;;0.70;99.90;;;;;;5021579;28;20459;-67
2022/12/01 06:57:25;;;;;;;55.63;26.67;;;0.70;99.90;;;;;;5019192;28;20465;-67
2022/12/01 06:59:50;;;;;;;56.00;26.10;;;0.70;99.90;;;;;;5018073;28;20545;-68
2022/12/01 07:02:16;;;;;;;52.10;25.73;;;0.70;99.90;;;;;;5022185;28;20446;-66
2022/12/01 07:04:42;;;;;;;58.03;23.57;;;0.70;99.90;;;;;;5020157;28;20276;-67
2022/12/01 07:07:07;;;;;;;54.50;28.20;;;0.70;99.90;;;;;;5018310;28;20234;-67
2022/12/01 07:09:34;;;;;;;59.97;26.10;;;0.60;99.90;;;;;;5018158;28;20243;-67
2022/12/01 07:12:00;;;;;;;63.00;28.90;;;0.60;99.90;;;;;;5017030;28;20462;-66
2022/12/01 07:14:26;;;;;;;62.70;29.20;;;0.60;99.90;;;;;;5023241;28;20202;-66
2022/12/01 07:16:52;;;;;;;64.20;27.60;;;0.70;99.90;;;;;;5016257;28;20261;-66
2022/12/01 07:19:17;;;;;;;63.67;28.10;;;0.70;99.90;;;;;;5021337;28;20936;-68
2022/12/01 07:21:43;;;;;;;71.87;29.77;;;0.70;99.90;;;;;;5015800;28;20175;-66
2022/12/01 07:24:11;;;;;;;68.87;28.60;;;0.70;99.90;;;;;;5018124;28;20264;-67
2022/12/01 07:26:37;;;;;;;61.67;30.23;;;0.80;99.90;;;;;;5022183;28;20222;-67
2022/12/01 07:29:03;;;;;;;65.93;32.10;;;0.80;99.90;;;;;;5020277;28;20467;-66
2022/12/01 07:31:28;;;;;;;60.93;29.73;;;0.80;99.90;;;;;;5018269;28;20434;-66
2022/12/01 07:33:54;;;;;;;67.40;31.07;;;0.90;99.90;;;;;;5022098;28;20256;-66
2022/12/01 07:36:20;;;;;;;60.83;28.13;;;0.90;99.90;;;;;;5015174;28;20215;-66
2022/12/01 07:38:45;;;;;;;59.20;26.90;;;0.80;99.90;;;;;;5021950;28;20187;-66
2022/12/01 07:41:17;;;;;;;68.77;29.50;;;0.80;99.90;;;;;;5020021;28;20181;-66
2022/12/01 07:43:43;;;;;;;86.90;31.20;;;0.90;99.90;;;;;;5021915;28;20279;-67
2022/12/01 07:46:20;;;;;;;63.80;28.40;;;0.90;99.90;;;;;;5018623;28;20899;-67
2022/12/01 07:48:46;;;;;;;71.77;30.53;;;0.80;99.90;;;;;;5021186;28;20909;-66
2022/12/01 07:51:17;;;;;;;91.97;35.20;;;0.80;99.90;;;;;;5019046;28;20437;-66
2022/12/01 07:53:44;;;;;;;79.87;34.03;;;0.80;99.90;;;;;;5022538;28;20175;-66
2022/12/01 07:56:10;;;;;;;72.33;32.40;;;0.90;99.90;;;;;;5025195;28;20458;-66
2022/12/01 07:58:36;;;;;;;75.63;33.40;;;0.80;99.90;;;;;;5022185;28;20418;-65
2022/12/01 08:01:11;;;;;;;74.80;32.80;;;0.80;99.90;;;;;;5024701;28;20766;-67
2022/12/01 08:03:37;;;;;;;74.70;34.27;;;0.80;99.90;;;;;;5023513;28;20433;-67
2022/12/01 08:06:04;;;;;;;76.87;30.83;;;0.90;99.90;;;;;;5025926;28;20534;-66
2022/12/01 08:08:31;;;;;;;89.10;34.50;;;0.90;99.90;;;;;;5021422;28;20842;-66
2022/12/01 08:11:03;;;;;;;82.10;34.13;;;0.90;99.90;;;;;;5028211;28;20981;-67
2022/12/01 08:13:29;;;;;;;74.50;30.70;;;1.00;99.90;;;;;;5023491;28;20919;-67
2022/12/01 08:15:55;;;;;;;78.00;35.20;;;1.00;99.90;;;;;;5023357;28;20533;-67
2022/12/01 08:18:21;;;;;;;75.07;29.30;;;1.00;99.90;;;;;;5025640;28;20553;-67
2022/12/01 08:20:47;;;;;;;82.30;32.67;;;1.00;99.90;;;;;;5020286;28;20924;-67
2022/12/01 08:23:13;;;;;;;80.07;31.33;;;1.10;99.90;;;;;;5022012;28;20436;-67
2022/12/01 08:25:38;;;;;;;76.33;31.70;;;1.10;99.90;;;;;;5023030;28;20451;-67
2022/12/01 08:28:04;;;;;;;84.00;32.10;;;1.10;99.90;;;;;;5018279;28;20188;-67
2022/12/01 08:30:30;;;;;;;96.33;36.10;;;1.00;99.90;;;;;;5021411;28;20556;-67
2022/12/01 08:32:57;;;;;;;82.43;33.30;;;1.00;99.90;;;;;;5021834;28;20182;-67
2022/12/01 08:35:23;;;;;;;80.30;33.67;;;1.00;99.90;;;;;;5023670;28;20256;-65
2022/12/01 08:37:52;;;;;;;91.07;33.10;;;1.00;99.90;;;;;;5018367;28;20996;-66
2022/12/01 08:40:18;;;;;;;67.20;30.07;;;1.00;99.90;;;;;;5018746;28;20443;-67
2022/12/01 08:42:43;;;;;;;78.77;34.03;;;1.00;99.90;;;;;;5019768;28;20430;-68
2022/12/01 08:45:09;;;;;;;80.43;29.50;;;1.00;99.90;;;;;;5025892;28;20888;-65
2022/12/01 08:47:35;;;;;;;78.70;33.00;;;1.00;99.90;;;;;;5019505;28;20171;-67
2022/12/01 08:50:03;;;;;;;71.37;30.47;;;1.00;99.90;;;;;;5023527;28;20469;-67
2022/12/01 08:52:31;;;;;;;73.47;33.47;;;1.00;99.90;;;;;;5022660;28;20551;-68
2022/12/01 08:54:57;;;;;;;85.00;36.30;;;1.00;99.90;;;;;;5019450;28;20432;-67
2022/12/01 08:57:22;;;;;;;85.03;34.23;;;1.00;99.90;;;;;;5017512;28;20427;-67
2022/12/01 08:59:48;;;;;;;71.47;32.87;;;1.00;99.90;;;;;;5026537;28;20564;-68
2022/12/01 09:02:16;;;;;;;92.50;33.80;;;1.00;99.90;;;;;;5019835;28;20599;-66
2022/12/01 09:04:43;;;;;;;86.43;35.40;;;1.00;99.90;;;;;;5022328;28;20434;-67
2022/12/01 09:07:10;;;;;;;84.10;34.30;;;1.10;99.90;;;;;;5023903;28;20521;-66
2022/12/01 09:09:36;;;;;;;77.33;33.10;;;1.10;99.90;;;;;;5019546;28;21033;-70
2022/12/01 09:12:02;;;;;;;86.00;34.13;;;1.20;99.90;;;;;;5020919;28;20431;-67
2022/12/01 09:14:28;;;;;;;91.07;35.30;;;1.20;99.90;;;;;;5030043;28;20429;-66
2022/12/01 09:16:54;;;;;;;91.37;36.03;;;1.20;99.90;;;;;;5017915;28;20450;-66
2022/12/01 09:19:20;;;;;;;82.33;34.50;;;1.20;99.90;;;;;;5019727;28;20932;-68
2022/12/01 09:21:46;;;;;;;96.87;32.43;;;1.10;99.90;;;;;;5021161;28;20184;-66
2022/12/01 09:24:13;;;;;;;91.33;35.37;;;1.20;99.90;;;;;;5022625;28;20497;-66
2022/12/01 09:26:40;;;;;;;76.03;37.77;;;1.20;99.90;;;;;;5021534;28;21184;-67
2022/12/01 09:29:08;;;;;;;90.70;33.10;;;1.30;99.90;;;;;;5022553;28;20466;-67
2022/12/01 09:31:34;;;;;;;70.83;33.90;;;1.20;99.90;;;;;;5020316;28;20484;-66
2022/12/01 09:34:02;;;;;;;82.33;35.10;;;1.30;99.90;;;;;;5021879;28;20475;-67
2022/12/01 09:36:30;;;;;;;85.80;34.57;;;1.20;99.90;;;;;;5024362;28;20879;-67
2022/12/01 09:38:57;;;;;;;86.33;35.47;;;1.30;99.90;;;;;;5023860;28;20445;-67
2022/12/01 09:41:33;;;;;;;83.27;34.33;;;1.20;99.90;;;;;;5023813;28;20509;-67
2022/12/01 09:44:29;;;;;;;85.40;33.40;;;1.40;99.90;;;;;;5022404;28;20572;-68
2022/12/01 09:47:10;;;;;;;77.47;34.30;;;1.40;99.90;;;;;;5016118;28;20457;-67
2022/12/01 09:49:45;;;;;;;75.27;32.30;;;1.40;99.90;;;;;;5020387;28;20458;-66
2022/12/01 09:52:12;;;;;;;75.77;32.43;;;1.40;99.90;;;;;;5019749;28;20903;-67
2022/12/01 09:54:38;;;;;;;69.73;29.97;;;1.40;99.90;;;;;;5019324;28;20566;-66
2022/12/01 09:57:04;;;;;;;77.47;31.90;;;1.40;99.90;;;;;;5016584;28;20931;-67
2022/12/01 09:59:40;;;;;;;65.70;29.90;;;1.50;99.90;;;;;;5012736;28;20521;-67
2022/12/01 10:02:30;;;;;;;79.27;34.33;;;1.50;99.90;;;;;;5017002;28;20191;-69
2022/12/01 10:04:59;;;;;;;71.57;28.57;;;1.50;99.90;;;;;;5020872;28;20473;-66
2022/12/01 10:07:49;;;;;;;72.40;32.10;;;1.40;99.90;;;;;;5014889;28;20438;-67
2022/12/01 10:10:25;;;;;;;62.70;28.23;;;1.40;99.90;;;;;;5024734;28;20512;-67
2022/12/01 10:12:51;;;;;;;60.97;30.93;;;1.40;99.90;;;;;;5020554;28;20438;-67
2022/12/01 10:15:22;;;;;;;63.30;29.40;;;1.40;99.90;;;;;;5017291;28;20482;-67
2022/12/01 10:18:21;;;;;;;61.10;27.97;;;1.50;99.90;;;;;;5018176;28;20458;-66
2022/12/01 10:21:10;;;;;;;63.50;30.13;;;1.50;99.90;;;;;;5015473;28;20430;-65
2022/12/01 10:24:00;;;;;;;73.00;29.80;;;1.40;99.90;;;;;;5015792;28;20445;-67
2022/12/01 10:26:48;;;;;;;54.73;27.40;;;1.40;99.90;;;;;;5020694;28;20457;-69
2022/12/01 10:29:20;;;;;;;66.70;29.77;;;1.40;99.90;;;;;;5019990;28;20461;-67
2022/12/01 10:31:45;;;;;;;69.07;29.77;;;1.40;99.90;;;;;;5018532;28;20938;-66
2022/12/01 10:34:20;;;;;;;63.53;30.10;;;1.50;99.90;;;;;;5019835;28;20421;-66
2022/12/01 10:36:46;;;;;;;58.63;26.70;;;1.50;99.90;;;;;;5040470;28;20294;-67
2022/12/01 10:39:43;;;;;;;70.53;29.03;;;1.50;99.90;;;;;;5046217;28;20438;-67
2022/12/01 10:42:28;;;;;;;57.97;27.10;;;1.40;99.90;;;;;;5027706;28;20191;-68
2022/12/01 10:45:00;;;;;;;66.23;28.53;;;1.50;99.90;;;;;;5033745;28;20430;-68
2022/12/01 10:47:27;;;;;;;68.87;28.97;;;1.70;99.90;;;;;;5021151;28;20441;-67
2022/12/01 10:49:53;;;;;;;58.37;28.97;;;1.70;99.90;;;;;;5022439;28;20462;-68
2022/12/01 10:52:39;;;;;;;62.53;28.17;;;1.70;99.90;;;;;;5016858;28;20548;-67
2022/12/01 10:55:34;;;;;;;60.93;33.03;;;1.60;99.90;;;;;;5022260;28;20433;-69
2022/12/01 10:58:05;;;;;;;52.23;27.10;;;1.80;99.90;;;;;;5034357;28;20811;-67
2022/12/01 11:00:37;;;;;;;66.33;27.80;;;1.80;99.90;;;;;;5039774;28;20892;-66
2022/12/01 11:03:03;;;;;;;71.87;31.77;;;1.70;99.90;;;;;;5025049;28;20410;-67
2022/12/01 11:05:36;;;;;;;60.33;26.93;;;1.70;99.90;;;;;;5038797;28;20928;-67
2022/12/01 11:08:02;;;;;;;51.40;26.83;;;1.80;99.90;;;;;;5032590;28;21101;-67
2022/12/01 11:10:32;;;;;;;52.73;28.90;;;1.70;99.90;;;;;;5039459;28;20456;-67
2022/12/01 11:13:18;;;;;;;61.33;29.67;;;1.70;99.90;;;;;;5035789;28;20217;-66
2022/12/01 11:15:53;;;;;;;55.47;28.90;;;1.70;99.90;;;;;;5029938;28;20438;-66
2022/12/01 11:18:33;;;;;;;56.97;26.97;;;1.70;99.90;;;;;;5037097;28;20416;-66
2022/12/01 11:21:25;;;;;;;54.87;28.80;;;1.70;99.90;;;;;;5042464;28;20903;-66
2022/12/01 11:23:53;;;;;;;57.83;24.47;;;1.70;99.90;;;;;;5035520;28;20768;-66
2022/12/01 11:26:31;;;;;;;52.83;26.67;;;1.70;99.90;;;;;;5039628;28;20496;-67
2022/12/01 11:29:01;;;;;;;64.30;30.77;;;1.70;99.90;;;;;;5045212;28;20414;-67
2022/12/01 11:31:48;;;;;;;59.47;29.03;;;1.80;99.90;;;;;;5018435;28;20526;-67
2022/12/01 11:34:33;;;;;;;61.73;29.83;;;1.70;99.90;;;;;;5033893;28;20460;-68
2022/12/01 11:37:05;;;;;;;52.03;27.10;;;1.80;99.90;;;;;;5042306;28;20535;-67
2022/12/01 11:39:35;;;;;;;51.47;26.67;;;1.90;99.90;;;;;;5042972;28;20833;-66
2022/12/01 11:42:04;;;;;;;57.80;27.80;;;1.90;99.90;;;;;;5016031;28;20409;-67
2022/12/01 11:44:31;;;;;;;58.47;29.10;;;1.90;99.90;;;;;;5041604;28;20417;-67
2022/12/01 11:47:14;;;;;;;56.40;26.93;;;1.90;99.90;;;;;;5042337;28;20463;-67
2022/12/01 11:49:44;;;;;;;51.77;27.97;;;1.90;99.90;;;;;;5041495;28;20504;-68
2022/12/01 11:52:21;;;;;;;53.47;30.47;;;1.90;99.90;;;;;;5042694;28;20492;-70
2022/12/01 11:54:58;;;;;;;57.73;27.60;;;1.90;99.90;;;;;;5042277;28;20888;-68
2022/12/01 11:57:25;;;;;;;53.77;28.23;;;1.80;99.90;;;;;;5038371;28;20475;-66
2022/12/01 11:59:51;;;;;;;46.93;25.03;;;1.80;99.90;;;;;;5040776;28;20420;-68
2022/12/01 12:02:29;;;;;;;46.10;23.57;;;1.80;99.90;;;;;;5043166;28;20413;-68
2022/12/01 12:05:14;;;;;;;42.83;22.60;;;1.80;99.90;;;;;;5065342;22;20222;-65
2022/12/01 12:07:42;;;;;;;45.13;25.10;;;1.80;99.90;;;;;;5050391;28;20412;-64
2022/12/01 12:10:32;;;;;;;56.57;26.40;;;1.90;99.90;;;;;;5050226;28;20515;-65
2022/12/01 12:13:29;;;;;;;42.43;23.27;;;1.90;99.90;;;;;;5050901;28;21133;-64
2022/12/01 12:16:36;;;;;;;47.50;24.10;;;1.90;99.90;;;;;;5030311;28;21650;-64
2022/12/01 12:19:29;;;;;;;45.73;23.03;;;1.80;99.90;;;;;;5030597;28;20456;-65
2022/12/01 12:22:19;;;;;;;49.03;22.60;;;1.80;99.90;;;;;;5030499;28;20509;-65
2022/12/01 12:25:21;;;;;;;46.50;23.47;;;1.80;99.90;;;;;;5028538;28;20488;-65
2022/12/01 12:28:16;;;;;;;43.53;23.30;;;1.90;99.90;;;;;;5030539;28;20517;-64
2022/12/01 12:30:47;;;;;;;49.17;27.53;;;1.90;99.90;;;;;;5030349;28;20454;-65
2022/12/01 12:33:19;;;;;;;45.50;24.83;;;1.90;99.90;;;;;;5028049;28;20419;-64
2022/12/01 12:36:13;;;;;;;46.80;28.00;;;1.80;99.90;;;;;;5028416;28;20443;-64
2022/12/01 12:38:55;;;;;;;44.73;24.30;;;1.80;99.90;;;;;;5030148;28;20430;-64
2022/12/01 12:41:28;;;;;;;41.67;22.23;;;1.70;99.90;;;;;;5034185;28;20394;-64
2022/12/01 12:44:01;;;;;;;43.87;22.63;;;1.70;99.90;;;;;;5034341;28;20429;-65
2022/12/01 12:46:35;;;;;;;45.83;24.80;;;1.70;99.90;;;;;;5034057;28;20499;-64
2022/12/01 12:49:16;;;;;;;46.60;24.50;;;1.70;99.90;;;;;;5033729;28;20406;-65
2022/12/01 12:52:02;;;;;;;47.87;24.27;;;1.80;99.90;;;;;;5033621;28;20422;-64
2022/12/01 12:54:37;;;;;;;45.30;23.20;;;1.70;99.90;;;;;;5034234;28;20781;-65
2022/12/01 12:57:17;;;;;;;45.87;26.80;;;1.70;99.90;;;;;;5033585;28;20408;-64